x

West Tampa - 112 Nm Wnw Of Tampa, Fl (42036) Wave Buoy

10:50am - Thu 30th Jul 2015 All times are EDT. -4 hours from GMT.

  • Sig Wave height 1.6ft
  • Swell Direction
  • Peak Period 4s
  • Average Period 4s
  • Wind
    16mph, 20mph gusts
  • Sea Temp 85°f
  • Air Temp 83°f
  • Sea Pressure 1015.7mb
  • West Tampa  - 112 Nm Wnw Of Tampa, Fl
  • West Tampa  - 112 Nm Wnw Of Tampa, Fl

More Historic Weather Station data

Upgrade to MSW Pro to gain access to the past 30 days of data for over 8000 Wavebouys and Weather Stations around the globe.

Join Pro

Comparision Forecast

View Surf forecast
   
Thu 07/30 10:50am 1.6ft 4s 4s 16 20 mph 1015.7mb 85f 83f
9:50am 2ft 4s 4s 11
mph
1015.5mb 85f 80f
8:50am 1.6ft 4s 4s 7 13 mph 1016mb 85f 79f
7:50am 2ft 4s 4s 9
mph
1014.8mb 85f 84f
6:50am 1.6ft 4s 4s 9 11 mph 1014.1mb 85f 84f
5:50am 2ft 4s 4s 9 11 mph 1014mb 85f 83f
4:50am 2ft 4s 4s 11 13 mph 1014.1mb 85f 83f
3:50am 2ft 4s 4s 9 11 mph 1014.3mb 85f 83f
2:50am 2ft 4s 4s 7 9 mph 1014.8mb 85f 81f
1:50am 2ft 4s 4s 4
mph
1014.9mb 85f 81f
12:50am 2.5ft 4s 4s 7 11 mph 1014.7mb 85f 80f
Wed 07/29 11:50pm 2.5ft 3s 4s 18 22 mph 1014.6mb 85f 80f
10:50pm 2.5ft 4s 3s 22 27 mph 1015.5mb 85f 79f
9:50pm 2.5ft 4s 4s 16 18 mph 1015.3mb 85f 83f
8:50pm 3ft 4s 4s 16 18 mph 1015mb 85f 81f
7:50pm 3.5ft 5s 4s 16 18 mph 1014.8mb 86f 80f
6:50pm 3ft 4s 4s 20 25 mph 1014.6mb 86f 79f
5:50pm 2ft 5s 4s 25 29 mph 1014mb 86f 80f
4:50pm 2ft 4s 4s 9
mph
1013.9mb 86f 87f
3:50pm 1.6ft 4s 4s 9
mph
1014.7mb 86f 87f
2:50pm 1.6ft 4s 4s 7 9 mph 1015.2mb 86f 87f
1:50pm 2ft 4s 4s 9 11 mph 1015.3mb 86f 87f
11:50am 2ft 4s 4s 11 13 mph 1015.9mb 85f 87f
10:50am 2.5ft 4s 4s 11 13 mph 1015.8mb 85f 87f
9:50am 2ft 4s 4s 11 13 mph 1015.5mb 85f 87f
8:50am 2.5ft 4s 4s 13 16 mph 1015mb 85f 87f
7:50am 2.5ft 4s 4s 13 16 mph 1014.7mb 85f 86f
6:50am 2.5ft 4s 4s 13 16 mph 1014.2mb 85f 86f
5:50am 2.5ft 4s 3s 13 16 mph 1013.6mb 85f 86f
4:50am 2.5ft 4s 4s 13 16 mph 1013.5mb 85f 85f
3:50am 2.5ft 4s 4s 16 18 mph 1013.9mb 85f 85f
2:50am 2.5ft 4s 3s 16 20 mph 1014.1mb 85f 85f
1:50am 2ft 4s 3s 16 20 mph 1014.8mb 85f 85f
12:50am 2ft 4s 3s 16 18 mph 1015.1mb 85f 85f
Tue 07/28 11:50pm 2ft 4s 4s 13 16 mph 1015.2mb 85f 85f
10:50pm 2ft 4s 4s 13 16 mph 1015.3mb 85f 85f
9:50pm 2ft 4s 4s 13 16 mph 1014.8mb 85f 84f
8:50pm 1.6ft 4s 4s 16 18 mph 1014.4mb 85f 84f
7:50pm 2ft 4s 4s 13 16 mph 1014.4mb 85f 85f
6:50pm 2.5ft 4s 4s 13 16 mph 1013.9mb 85f 85f
5:50pm 2.5ft 5s 4s 13 16 mph 1014mb 85f 84f
4:50pm 2.5ft 5s 4s 13 18 mph 1014.4mb 85f 83f
3:50pm 3ft 5s 4s 11 13 mph 1014.5mb 85f 83f
2:50pm 2.5ft 5s 4s 18 22 mph 1014.6mb 85f 82f
1:50pm 3ft 5s 4s 2
mph
1015.6mb 85f 85f
12:50pm 3.5ft 5s 4s 7
mph
1015.3mb 85f 85f
11:50am 4ft 5s 4s 4 7 mph 1015.7mb 85f 84f
10:50am 4.5ft 4s 4s 16 18 mph 1015.2mb 85f 84f
9:50am 4.5ft 4s 4s 20 27 mph 1014.3mb 85f 84f
8:50am 3.5ft 4s 4s 16 20 mph 1014.6mb 85f 85f
7:50am 3.5ft 4s 4s 16 20 mph 1013.7mb 85f 86f
6:50am 3ft 4s 4s 18 20 mph 1013.2mb 85f 86f
5:50am 2.5ft 4s 4s 18 22 mph 1012.7mb 85f 86f
4:50am 2.5ft 3s 4s 16 20 mph 1012.4mb 85f 86f
3:50am 2.5ft 3s 4s 13 18 mph 1013.1mb 85f 86f
2:50am 2ft 3s 4s 9 16 mph 1013.4mb 85f 83f
1:50am 1.6ft 3s 3s 13 18 mph 1013.4mb 85f 84f
12:50am 2ft 5s 3s 11 16 mph 1013.9mb 85f 86f
Mon 07/27 11:50pm 2ft 5s 4s 13
mph
1013.5mb 85f 86f
10:50pm 2ft 5s 4s 11 13 mph 1013.6mb 85f 86f
9:50pm 2ft 4s 4s 11 13 mph 1013.3mb 85f 85f
8:50pm 2ft 4s 4s 13 16 mph 1013.1mb 85f 85f
7:50pm 2ft 4s 4s 11 13 mph 1012.6mb 86f 85f
6:50pm 2.5ft 4s 4s 7 9 mph 1012.7mb 86f 85f
5:50pm 2.5ft 4s 4s 9
mph
1012.7mb 86f 85f
4:50pm 2.5ft 4s 4s 13 16 mph 1012.5mb 86f 84f
3:50pm 2.5ft 4s 4s 13 16 mph 1012.8mb 86f 84f
2:50pm 2.5ft 4s 4s 13 18 mph 1013.4mb 85f 84f
1:50pm 2.5ft 4s 4s 13 18 mph 1013.5mb 85f 84f
12:50pm 2.5ft 4s 4s 16 18 mph 1013.3mb 85f 84f
11:50am 2ft 4s 3s 16 18 mph 1013.5mb 85f 83f
10:50am 1.6ft 4s 3s 22 29 mph 1013.1mb 85f 81f
9:50am 2ft 5s 3s 13 16 mph 1013.2mb 85f 84f
8:50am 2ft 4s 4s 13 16 mph 1012.8mb 85f 84f
7:50am 2ft 5s 4s 11
mph
1012.1mb 85f 83f
6:50am 2ft 5s 4s 9 11 mph 1012mb 85f 83f
5:50am 2.5ft 5s 4s 9 11 mph 1011.2mb 85f 83f
4:50am 2.5ft 4s 4s 11 16 mph 1011mb 85f 83f
3:50am 2.5ft 5s 4s 13 16 mph 1010.9mb 85f 84f
2:50am 2.5ft 4s 4s 11 13 mph 1011.6mb 85f 84f
1:50am 2.5ft 5s 4s 7 9 mph 1012.1mb 85f 82f
12:50am 2ft 4s 4s 11 16 mph 1012.5mb 85f 83f
Sun 07/26 11:50pm 1.6ft 4s 4s 13 16 mph 1012.8mb 85f 84f
10:50pm 1.6ft 4s 4s 9 13 mph 1012.6mb 85f 82f
9:50pm 2ft 4s 4s 9
mph
1012.4mb 86f 81f
8:50pm 2ft 4s 4s 9 11 mph 1012.2mb 86f 84f
7:50pm 2ft 5s 4s 9 13 mph 1012.1mb 86f 84f
6:50pm 2ft 4s 4s 9 11 mph 1011.8mb 86f 84f
5:50pm 2.5ft 5s 4s 9 11 mph 1012.2mb 86f 84f
4:50pm 2.5ft 4s 4s 7 9 mph 1012.1mb 86f 84f